createdAt,value
2023-03-29T00:02:34.651Z,68.23
2023-03-29T00:07:36.313Z,67.79
2023-03-29T00:12:39.706Z,68.04
2023-03-29T00:17:41.288Z,68.00
2023-03-29T00:22:43.314Z,67.83
2023-03-29T00:27:44.881Z,68.06
2023-03-29T00:32:46.799Z,67.99
2023-03-29T00:37:50.763Z,67.80
2023-03-29T00:42:52.537Z,67.39
2023-03-29T00:48:13.909Z,67.59
2023-03-29T00:53:26.156Z,67.29
2023-03-29T00:58:36.167Z,67.12
2023-03-29T01:03:46.526Z,67.57
2023-03-29T01:08:51.529Z,67.68
2023-03-29T01:14:03.700Z,67.63
2023-03-29T01:19:08.283Z,66.87
2023-03-29T01:24:35.296Z,66.92
2023-03-29T01:29:50.007Z,67.38
2023-03-29T01:35:14.076Z,68.00
2023-03-29T01:40:15.814Z,68.18
2023-03-29T01:45:25.162Z,68.50
2023-03-29T01:50:26.687Z,68.05
2023-03-29T01:55:33.965Z,68.30
2023-03-29T02:00:38.592Z,68.26
2023-03-29T02:05:42.362Z,68.77
2023-03-29T02:10:44.521Z,68.60
2023-03-29T02:15:47.525Z,68.69
2023-03-29T02:20:50.711Z,68.57
2023-03-29T02:25:54.040Z,68.49
2023-03-29T02:31:06.362Z,68.01
2023-03-29T02:36:17.584Z,68.54
2023-03-29T02:41:20.502Z,68.56
2023-03-29T02:46:22.366Z,67.51
2023-03-29T02:51:28.264Z,67.59
2023-03-29T02:56:30.283Z,67.80
2023-03-29T03:01:31.939Z,67.19
2023-03-29T03:06:33.563Z,67.02
2023-03-29T03:11:35.371Z,67.61
2023-03-29T03:16:37.266Z,67.47
2023-03-29T03:21:39.192Z,67.53
2023-03-29T03:26:40.806Z,67.17
2023-03-29T03:31:42.951Z,66.82
2023-03-29T03:37:02.569Z,68.09
2023-03-29T03:42:08.434Z,67.57
2023-03-29T03:47:14.538Z,66.97
2023-03-29T03:52:18.289Z,66.86
2023-03-29T03:57:20.190Z,67.20
2023-03-29T04:02:26.649Z,66.97
2023-03-29T04:07:28.569Z,67.03
2023-03-29T04:12:30.490Z,67.54
2023-03-29T04:17:32.440Z,67.49
2023-03-29T04:22:39.116Z,67.25
2023-03-29T04:27:40.962Z,68.46
2023-03-29T04:32:56.747Z,68.75
2023-03-29T04:37:59.693Z,67.87
2023-03-29T04:43:03.305Z,66.84
2023-03-29T04:48:06.146Z,66.92
2023-03-29T04:53:12.222Z,67.01
2023-03-29T04:58:14.548Z,66.47
2023-03-29T05:03:18.150Z,67.19
2023-03-29T05:08:40.520Z,66.23
2023-03-29T05:13:57.264Z,66.79
2023-03-29T05:19:02.053Z,67.28
2023-03-29T05:24:09.937Z,65.65
2023-03-29T05:29:44.803Z,65.15
2023-03-29T05:35:12.416Z,65.23
2023-03-29T05:40:14.265Z,63.94
2023-03-29T05:45:35.866Z,63.83
2023-03-29T05:50:38.422Z,63.80
2023-03-29T05:55:42.413Z,63.95
2023-03-29T06:00:46.566Z,63.49
2023-03-29T06:06:04.198Z,64.67
2023-03-29T06:11:10.858Z,64.39
2023-03-29T06:16:31.517Z,63.84
2023-03-29T06:21:33.427Z,63.07
2023-03-29T06:26:36.389Z,63.47
2023-03-29T06:31:38.145Z,63.33
2023-03-29T06:36:43.317Z,62.65
2023-03-29T06:41:45.262Z,63.26
2023-03-29T06:47:07.343Z,63.66
2023-03-29T06:52:09.778Z,63.65
2023-03-29T06:57:13.310Z,63.23
2023-03-29T07:02:16.440Z,62.58
2023-03-29T07:07:22.538Z,62.30
2023-03-29T07:12:30.973Z,62.43
2023-03-29T07:17:35.253Z,61.90
2023-03-29T07:22:37.429Z,62.33
2023-03-29T07:27:40.844Z,62.48
2023-03-29T07:32:46.937Z,61.27
2023-03-29T07:38:11.952Z,61.25
2023-03-29T07:43:20.408Z,61.87
2023-03-29T07:48:23.521Z,61.93
2023-03-29T07:53:29.786Z,62.38
2023-03-29T07:58:33.431Z,62.12
2023-03-29T08:03:36.187Z,62.33
2023-03-29T08:08:39.809Z,62.50
2023-03-29T08:13:46.193Z,62.79
2023-03-29T08:19:07.103Z,63.42
2023-03-29T08:24:41.407Z,63.28
2023-03-29T08:29:43.601Z,63.67
2023-03-29T08:34:46.765Z,63.36
2023-03-29T08:40:02.089Z,63.96
2023-03-29T08:45:38.073Z,64.92
2023-03-29T08:50:46.105Z,65.58
2023-03-29T08:55:48.904Z,64.69
2023-03-29T09:01:09.202Z,65.50
2023-03-29T09:06:22.108Z,65.02
2023-03-29T09:11:32.526Z,64.82
2023-03-29T09:16:38.484Z,64.68
2023-03-29T09:21:43.282Z,64.57
2023-03-29T09:26:47.610Z,64.64
2023-03-29T09:32:03.488Z,64.59
2023-03-29T09:37:12.471Z,64.19
2023-03-29T09:42:16.918Z,65.02
2023-03-29T09:47:28.363Z,65.15
2023-03-29T09:52:32.294Z,65.24
2023-03-29T09:57:43.781Z,65.33
2023-03-29T10:02:52.709Z,64.89
2023-03-29T10:08:01.115Z,64.86
2023-03-29T10:13:18.921Z,64.57
2023-03-29T10:18:20.541Z,64.18
2023-03-29T10:23:22.100Z,64.36
2023-03-29T10:28:26.235Z,63.88
2023-03-29T10:33:33.232Z,64.62
2023-03-29T10:38:35.923Z,64.32
2023-03-29T10:43:40.942Z,64.43
2023-03-29T10:48:46.306Z,64.46
2023-03-29T10:53:47.925Z,64.82
2023-03-29T10:59:10.816Z,65.14
2023-03-29T11:04:29.903Z,64.95
2023-03-29T11:09:53.200Z,65.02
2023-03-29T11:15:14.615Z,64.82
2023-03-29T11:20:33.668Z,64.58
2023-03-29T11:25:44.233Z,64.34
2023-03-29T11:30:51.909Z,64.66
2023-03-29T11:36:04.098Z,64.69
2023-03-29T11:41:16.008Z,63.71
2023-03-29T11:46:25.761Z,63.82
2023-03-29T11:51:33.773Z,63.72
2023-03-29T11:56:46.774Z,63.31
2023-03-29T12:02:17.800Z,63.73
2023-03-29T12:07:41.695Z,62.93
2023-03-29T12:12:48.406Z,63.54
2023-03-29T12:18:26.155Z,62.71
2023-03-29T12:23:31.692Z,63.07
2023-03-29T12:28:36.654Z,62.18
2023-03-29T12:34:06.677Z,61.57
2023-03-29T12:39:27.777Z,61.93
2023-03-29T12:44:59.699Z,61.68
2023-03-29T12:50:07.259Z,61.67
2023-03-29T12:55:33.171Z,61.46
2023-03-29T13:00:45.012Z,60.54
2023-03-29T13:05:46.990Z,61.03
2023-03-29T13:10:56.158Z,61.16
2023-03-29T13:16:09.691Z,61.05
2023-03-29T13:21:39.270Z,60.93
2023-03-29T13:26:52.748Z,61.73
2023-03-29T13:32:22.951Z,61.27
2023-03-29T13:37:53.126Z,61.38
2023-03-29T13:42:58.549Z,61.26
2023-03-29T13:48:22.537Z,61.96
2023-03-29T13:53:30.117Z,62.09
2023-03-29T13:58:55.810Z,62.04
2023-03-29T14:03:57.793Z,62.56
2023-03-29T14:09:04.883Z,62.47
2023-03-29T14:14:08.097Z,62.76
2023-03-29T14:19:18.878Z,62.43
2023-03-29T14:24:27.678Z,62.65
2023-03-29T14:29:33.859Z,62.41
2023-03-29T14:34:35.472Z,62.92
2023-03-29T14:39:38.190Z,62.99
2023-03-29T14:44:39.906Z,63.68
2023-03-29T14:49:41.577Z,63.04
2023-03-29T14:54:46.965Z,63.33
2023-03-29T14:59:54.233Z,62.91
2023-03-29T15:04:57.884Z,63.52
2023-03-29T15:10:00.043Z,63.53
2023-03-29T15:15:02.578Z,64.18
2023-03-29T15:20:12.549Z,64.52
2023-03-29T15:25:18.858Z,63.96
2023-03-29T15:30:20.575Z,64.50
2023-03-29T15:35:25.668Z,65.29
2023-03-29T15:40:28.195Z,65.00
2023-03-29T15:45:29.818Z,66.32
2023-03-29T15:50:32.463Z,65.74
2023-03-29T15:55:34.131Z,66.15
2023-03-29T16:00:36.498Z,65.97
2023-03-29T16:05:38.150Z,66.36
2023-03-29T16:10:41.172Z,65.82
2023-03-29T16:15:43.255Z,66.38
2023-03-29T16:20:44.853Z,66.34
2023-03-29T16:25:46.464Z,66.08
2023-03-29T16:30:48.392Z,66.62
2023-03-29T16:35:50.013Z,66.90
2023-03-29T16:40:52.590Z,67.44
2023-03-29T16:45:54.612Z,67.82
2023-03-29T16:50:57.247Z,68.14
2023-03-29T16:55:58.883Z,68.05
2023-03-29T17:01:10.761Z,68.34
2023-03-29T17:06:12.654Z,68.99
2023-03-29T17:11:15.487Z,68.58
2023-03-29T17:16:17.460Z,68.59
2023-03-29T17:21:19.152Z,69.11
2023-03-29T17:26:20.888Z,68.97
2023-03-29T17:31:22.536Z,70.19
2023-03-29T17:36:25.366Z,69.39
2023-03-29T17:41:28.575Z,69.41
2023-03-29T17:46:32.267Z,69.93
2023-03-29T17:51:33.870Z,70.16
2023-03-29T17:56:35.669Z,70.02
2023-03-29T18:01:39.192Z,69.81
2023-03-29T18:06:42.516Z,70.49
2023-03-29T18:11:44.081Z,70.21
2023-03-29T18:16:45.750Z,70.38
2023-03-29T18:21:47.404Z,70.43
2023-03-29T18:26:48.981Z,70.88
2023-03-29T18:31:50.621Z,70.72
2023-03-29T18:36:53.974Z,71.12
2023-03-29T18:41:55.945Z,70.98
2023-03-29T18:46:57.510Z,71.29
2023-03-29T18:51:59.171Z,71.61
2023-03-29T18:57:00.946Z,72.20
2023-03-29T19:02:03.173Z,72.31
2023-03-29T19:07:04.754Z,72.59
2023-03-29T19:12:06.913Z,72.53
2023-03-29T19:17:08.497Z,72.25
2023-03-29T19:22:10.096Z,71.71
2023-03-29T19:27:12.649Z,71.40
2023-03-29T19:32:14.303Z,71.07
2023-03-29T19:37:17.507Z,71.28
2023-03-29T19:42:19.063Z,71.57
2023-03-29T19:47:20.806Z,71.50
2023-03-29T19:52:23.900Z,71.84
2023-03-29T19:57:25.706Z,71.82
2023-03-29T20:02:27.392Z,72.63
2023-03-29T20:07:29.018Z,72.99
2023-03-29T20:12:30.892Z,72.48
2023-03-29T20:17:32.586Z,71.92
2023-03-29T20:22:34.167Z,72.12
2023-03-29T20:27:36.066Z,72.03
2023-03-29T20:32:37.759Z,71.62
2023-03-29T20:37:39.419Z,71.69
2023-03-29T20:42:41.545Z,71.68
2023-03-29T20:47:50.136Z,71.87
2023-03-29T20:52:54.196Z,72.03
2023-03-29T20:57:59.274Z,71.86
2023-03-29T21:03:03.753Z,71.27
2023-03-29T21:08:05.516Z,71.74
2023-03-29T21:13:07.587Z,71.80
2023-03-29T21:18:09.260Z,72.13
2023-03-29T21:23:11.127Z,71.58
2023-03-29T21:28:13.335Z,71.73
2023-03-29T21:33:15.299Z,72.66
2023-03-29T21:38:17.365Z,72.43
2023-03-29T21:43:25.528Z,72.06
2023-03-29T21:48:27.240Z,72.04
2023-03-29T21:53:28.851Z,73.13
2023-03-29T21:58:31.649Z,72.69
2023-03-29T22:03:33.396Z,73.05
2023-03-29T22:08:38.776Z,74.26
2023-03-29T22:13:41.528Z,73.01
2023-03-29T22:18:44.892Z,73.55
2023-03-29T22:23:49.708Z,73.86
2023-03-29T22:28:51.663Z,75.51
2023-03-29T22:33:53.682Z,72.91
2023-03-29T22:38:55.915Z,73.92
2023-03-29T22:43:59.121Z,73.82
2023-03-29T22:49:00.725Z,73.78
2023-03-29T22:54:02.322Z,74.73
2023-03-29T22:59:03.998Z,73.84
2023-03-29T23:04:06.187Z,73.40
2023-03-29T23:09:07.990Z,73.47
2023-03-29T23:14:09.650Z,74.30
2023-03-29T23:19:11.185Z,73.56
2023-03-29T23:24:13.407Z,73.95
2023-03-29T23:29:15.385Z,73.62
2023-03-29T23:34:18.164Z,74.20
2023-03-29T23:39:19.751Z,73.71
2023-03-29T23:44:21.372Z,73.94
2023-03-29T23:49:22.981Z,74.16
2023-03-29T23:54:25.266Z,74.48
2023-03-29T23:59:30.560Z,74.22
